Bid Package Information

**Dates are subject to change. Please stay connected to Lakeside Alliance for updates.**

BID PACKAGE MATRIX **
Package Number Package Name Package Scope Description Approx Volume Prebid/Outreach Meeting Date ITB Issuance Date Bids Due
03-001 Site Clearing   Site $1,437,000 $1,860,000 3/18/2021 (A) 4/12/2021 5/7/2021
03-002 Mass and Structural Excavation   Tower, Forum & Library $4,112,000 $5,321,000 3/18/2021 (A) 4/12/2021 5/7/2021
03-003 Mass and Structural Excavation   Parking Structure $2,137,000 $2,765,000 3/18/2021 (A) 4/12/2021 5/7/2021
03-004 Caissons   Tower, Forum & Library $3,032,000 $3,923,000 4/8/2021 4/12/2021 5/7/2021
03-005 Caissons   Parking Structure $1,452,000 $1,880,000 4/8/2021 4/12/2021 5/7/2021
03-006 Geothermal Wells   $2,296,000 $2,972,000 4/8/2021 4/12/2021 5/7/2021
03-007 Construction Dewatering   Tower, Forum & Library $1,126,000 $1,458,000 4/8/2021 4/12/2021 5/7/2021
03-008 Construction Dewatering   Parking Structure $549,000 $711,000 4/8/2021 4/12/2021 5/7/2021
03-009 Early Landscape   Site $339,000 $439,000 4/8/2021 4/12/2021 5/7/2021
04A-001 Site Utilities   Domestic, sanitary sewer, and storm drainage site utilities for the project site. $4,011,000 $5,191,000 4/28/2021 5/10/2021 6/4/2021
04A-002 Building Façade Stone   Exterior Façade Cladding:  Supply, fabrication and installation of stone for exterior building cladding. This package includes the support framing and insulation required for a complete system. $23,559,000 $30,488,000 4/28/2021 5/10/2021 6/4/2021
04A-003 Interior Stone   Interior Stone: Supply, fabrication, and Installation of stone for interior flooring, benches, etc. $4,670,000 $6,043,000 4/28/2021 5/10/2021 6/4/2021
04A-004 Exterior Stone   Exterior Site Stone: Supply, fabrication, and installation of stone for exterior seating, stairs, and cladding at site retaining walls. $726,000 $940,000 4/28/2021 5/10/2021 6/4/2021
04A-005 UHPC   Exterior UHPC Screen Wall $7,277,000 $9,417,000 4/28/2021 5/10/2021 6/4/2021
04A-006 Metal Panels   Metal panels for the museum, forum, library, and parking garage. $1,492,000 $1,931,000 4/28/2021 5/10/2021 6/4/2021
04A-007 Elevators   Passenger and service elevators for the museum, forum, and library. $4,923,000 $6,371,000 4/28/2021 5/10/2021 6/4/2021
04A-008 Escalators   Escalators for the museum. $1,277,000 $1,653,000 4/28/2021 5/10/2021 6/4/2021
04A-009 Curtian Wall & Storefront   Curtain wall and storefront for the museum, forum, and library. $10,733,000 $13,889,000 4/28/2021 5/10/2021 6/4/2021
04A-010 Curtian Wall & Storefront   Curtain wall and storefront for the parking garage $227,000 $294,000 4/28/2021 5/10/2021 6/4/2021
04A-011 Full Façade Assembly Mockup   $331,000 $428,000 4/28/2021 5/10/2021 6/4/2021
04A-012 HVAC   HVAC system for conditioned spaces of the parking garage. Fuel oil and exhaust system for generators. $1,550,000 $2,006,000 4/28/2021 5/10/2021 6/4/2021
04A-013 HVAC   Refrigerant, hot water, chilled water piping and associated equipment in the museum, forum, and library. $6,165,000 $7,978,000 4/28/2021 5/10/2021 6/4/2021
04A-014 HVAC   Ductwork, associated equipment, and temperature control in the museum, forum, and library. $15,982,000 $20,682,000 4/28/2021 5/10/2021 6/4/2021
04A-015 Plumbing   Plumbing system for the museum, forum, and library. $3,832,000 $4,960,000 4/28/2021 5/10/2021 6/4/2021
04A-016 Plumbing   Plumbing system for the parking garage. $865,000 $1,120,000 4/28/2021 5/10/2021 6/4/2021
04B-001 Fire Alarm   Fire alarm system for the project. $1,632,000 $2,112,000 6/2/2021 6/14/2021 7/9/2021
04B-002 Telecommunications   Telecommunications system for the museum, forum, and library. $6,766,000 $8,756,000 6/2/2021 6/14/2021 7/9/2021
04B-003 Telecommunications   Telecommunications system and DAS system for the garage. $934,000 $1,209,000 6/2/2021 6/14/2021 7/9/2021
04B-004 Telecommunications   Telecommunications system for the site. $338,000 $437,000 6/2/2021 6/14/2021 7/9/2021
04B-005 Fire Suppression   Fire suppression system for the museum, forum, library, and parking structure. $2,451,000 $3,172,000 6/2/2021 6/14/2021 7/9/2021
04B-006 Site Electric   Site electrical distribution systems and lighting (Includes Temp Power and Lighting). $6,455,000 $8,354,000 6/2/2021 6/14/2021 7/9/2021
04B-007 Electrical   Electrical distribution system in the museum, forum, and library including electrical equipment and lighting. $22,865,000 $29,591,000 6/2/2021 6/14/2021 7/9/2021
04B-008 Electrical   Electrical distribution system in the parking garage including electrical equipment and lighting. $2,065,000 $2,673,000 6/2/2021 6/14/2021 7/9/2021
04B-009 Electrical Ductbanks   Electrical distribution ductbanks. $342,000 $442,000 6/2/2021 6/14/2021 7/9/2021
04B-010 Security   Security systems for the project including access control, cameras, etc. $2,093,000 $2,709,000 6/2/2021 6/14/2021 7/9/2021
04B-011 Damp proofing, Waterproofing, & Joint Sealants   Waterproofing for the Museum, Forum, and Library. $2,034,000 $2,632,000 6/2/2021 6/14/2021 7/9/2021
04B-012 Damp proofing, Waterproofing, & Joint Sealants   Waterproofing for the Parking Garage & Site. $254,000 $328,000 6/2/2021 6/14/2021 7/9/2021
04B-013 Roofing   Roofing for the museum. $776,000 $1,004,000 6/2/2021 6/14/2021 7/9/2021
04B-014 Roofing   Roofing for the forum and library. $3,435,000 $4,445,000 6/2/2021 6/14/2021 7/9/2021
04B-015 Structural Steel   Structural steel framing for the tower, forum, and library including, but not limited to auditorium framing, catwalk framing, and elevator beams. $298,000 $385,000 6/2/2021 6/14/2021 7/9/2021
04B-016 Tower Steel Stairs   Steel stairs and associated railings for the museum. $698,000 $903,000 6/2/2021 6/14/2021 7/9/2021
04B-017 Forum Library Stairs   Steel stairs and associated railings for the forum and library. $151,000 $195,000 6/2/2021 6/14/2021 7/9/2021
04B-018 Spray Fireproofing   Spray fireproofing for structural steel $32,000 $41,000 6/2/2021 6/14/2021 7/9/2021
05-001 Masonry   CMU wall construction in the tower. $610,000 $789,000 7/28/2021 8/9/2021 9/3/2021
05-002 Masonry   CMU wall construction in the forum and library. $943,000 $1,220,000 7/28/2021 8/9/2021 9/3/2021
05-003 Masonry   CMU wall construction in the parking garage. $217,000 $281,000 7/28/2021 8/9/2021 9/3/2021
05-004 Misc Metals    Miscellaneous metals for the tower. $2,168,000 $2,806,000 7/28/2021 8/9/2021 9/3/2021
05-005 Misc Metals    Miscellaneous metals for the forum and library. $405,000 $524,000 7/28/2021 8/9/2021 9/3/2021
05-006 Misc Metals    Miscellaneous metals for the parking structure. $171,000 $222,000 7/28/2021 8/9/2021 9/3/2021
05-007 Tower Ornamental Stair   Museum lobby ornamental stairs & assoicated ornamental stair railings. $800,000 $1,035,000 7/28/2021 8/9/2021 9/3/2021
05-008 Forum Library Ornamental Stairs   Museum lobby ornamental railing for stairs. $46,000 $60,000 7/28/2021 8/9/2021 9/3/2021
05-009 Ornamental Metals   Ornamental metals & Ornamental Glass Rails for the tower. $3,577,000 $4,629,000 7/28/2021 8/9/2021 9/3/2021
05-010 Ornamental Metals   Ornamental metals & Ornamental Glass Rails for the forum and library. $1,138,000 $1,472,000 7/28/2021 8/9/2021 9/3/2021
05-011 Ornamental Metals   Ornamental metals & Ornamental Glass Rails for the parking structure. $47,000 $61,000 7/28/2021 8/9/2021 9/3/2021
05-012 Ornamental Metals   Ornamental metals & Ornamental Glass Rails for the site including handrails and plant rails. $769,000 $995,000 7/28/2021 8/9/2021 9/3/2021
05-013 Rough Carpentry   Rough carpentry and installation of doors, frames, and hardware for the tower. $859,000 $1,112,000 7/28/2021 8/9/2021 9/3/2021
05-014 Rough Carpentry   Rough carpentry and installation of doors, frames, and hardware for the forum and library. $302,000 $391,000 7/28/2021 8/9/2021 9/3/2021
05-015 Rough Carpentry   Rough carpentry and installation of doors, frames, and hardware for the parking garage. $130,000 $169,000 7/28/2021 8/9/2021 9/3/2021
05-016 Door, Frames, and Hardware    Supply of doors, frames, and hardware for museum, forum, and library. $2,168,000 $2,806,000 7/28/2021 8/9/2021 9/3/2021
05-017 Door, Frames, and Hardware   Supply of doors, frames, and hardware for the parking garage. $164,000 $212,000 7/28/2021 8/9/2021 9/3/2021
05-018 Specialty Doors and Frames   Fire shutters and overhead coiling doors. $346,000 $448,000 7/28/2021 8/9/2021 9/3/2021
05-019 Gypsum Board Assemblies   Framing, drywall, and insulation for the tower. $4,650,000 $6,018,000 8/25/2021 9/6/2021 10/1/2021
05-020 Gypsum Board Assemblies   Framing, drywall, and insulation for the forum and library. $3,078,000 $3,983,000 8/25/2021 9/6/2021 10/1/2021
05-021 Gypsum Board Assemblies   Framing, drywall, and insulation for the parking garage. $49,000 $63,000 8/25/2021 9/6/2021 10/1/2021
05-022 Acoustical Ceilings   Acoustical ceilings for the tower. $255,000 $331,000 8/25/2021 9/6/2021 10/1/2021
05-023 Acoustical Ceilings   Acoustical ceilings for the forum library and parking garage.  $287,000 $372,000 8/25/2021 9/6/2021 10/1/2021
05-024 Wood Ceilings   Wood ceiling panels for the tower, forum, and library. $1,370,000 $1,773,000 8/25/2021 9/6/2021 10/1/2021
05-025 Architectural Woodwork   Millwork for the tower. $1,308,000 $1,692,000 8/25/2021 9/6/2021 10/1/2021
05-026 Architectural Woodwork   Millwork for the forum and library. $2,387,000 $3,089,000 8/25/2021 9/6/2021 10/1/2021
05-027 Architectural Woodwork   Millwork for the parking garage. $17,000 $21,000 8/25/2021 9/6/2021 10/1/2021
05-028 Wood Wall Panels   Wood wall panels in the museum, forum, and library. $1,505,000 $1,948,000 8/25/2021 9/6/2021 10/1/2021
05-029 Auditorium Vertical Sliding Door   Counter Balanced Door $186,000 $241,000 8/25/2021 9/6/2021 10/1/2021
05-030 Interior Glass & Glazing   Interior Glass and Glazing $703,000 $909,000 8/25/2021 9/6/2021 10/1/2021
05-031 Tile   Ceramic and porcelain tile for the tower. $565,000 $731,000 8/25/2021 9/6/2021 10/1/2021
05-032 Tile   Ceramic and porcelain tile for the forum and library. $268,000 $347,000 8/25/2021 9/6/2021 10/1/2021
05-033 Tile   Ceramic and porcelain tile for the parking garage. $29,000 $38,000 8/25/2021 9/6/2021 10/1/2021
05-034 Flooring (Resilient & Carpeting)   Resilient flooring, carpet, and vinyl base for the tower. $62,000 $80,000 8/25/2021 9/6/2021 10/1/2021
05-035 Flooring (Resilient & Carpeting)   Resilient flooring, carpet, and vinyl base for the forum and library. $289,000 $374,000 8/25/2021 9/6/2021 10/1/2021
05-036 Flooring (Resilient & Carpeting)   Resilient flooring, carpet, and vinyl base for the parking garage. $5,000 $7,000 8/25/2021 9/6/2021 10/1/2021
05-037 Flooring (Resinous Flooring)   Resinous Flooring & Traffic Coating. $543,000 $702,000 9/22/2021 10/4/2021 10/29/2021
05-038 Moisture Mitigation Floor Preparation    $367,000 $475,000 9/22/2021 10/4/2021 10/29/2021
05-039 Wood Flooring   Wood flooring for the tower, forum, and library. $2,648,000 $3,426,000 9/22/2021 10/4/2021 10/29/2021
05-040 Painting & Wall Coverings   Paint and wall coverings for the tower. $525,000 $679,000 9/22/2021 10/4/2021 10/29/2021
05-041 Painting & Wall Coverings   Paint and wall coverings for the forum and library. $800,000 $1,035,000 9/22/2021 10/4/2021 10/29/2021
05-042 Painting & Wall Coverings   Paint and wall coverings for the parking garage. $29,000 $38,000 9/22/2021 10/4/2021 10/29/2021
05-043 Architectural Louvers & Vents   Aluminum and bronze louvers and grilles. $312,000 $404,000 9/22/2021 10/4/2021 10/29/2021
05-044 Division 10 Specialties   Division 10 specialties for the tower including toilet accessories, lockers, and walk off mats. $399,000 $516,000 9/22/2021 10/4/2021 10/29/2021
05-045 Division 10 Specialties   Division 10 specialties for the forum and library including toilet accessories, lockers, and walk off mats. $480,000 $621,000 9/22/2021 10/4/2021 10/29/2021
05-046 Division 10 Specialties   Division 10 specialties for the parking garage including toilet accessories, lockers, and walk off mats. $42,000 $55,000 9/22/2021 10/4/2021 10/29/2021
05-047 High Density Files   Mobile Shelves $172,000 $222,000 9/22/2021 10/4/2021 10/29/2021
05-048 Coat Rack System   Furnish and install coat rack system in the museum. $39,000 $50,000 9/22/2021 10/4/2021 10/29/2021
05-049 Book Depository & Fireplace    $20,000 $26,000 9/22/2021 10/4/2021 10/29/2021
05-050 Demountable Partitions   Furnish and install demountable partitions in the forum and library. $249,000 $322,000 9/22/2021 10/4/2021 10/29/2021
05-051 Operable Partitions   Furnish and install operable partitions in the forum and library. $225,000 $291,000 9/22/2021 10/4/2021 10/29/2021
05-052 Loading Dock Equipment   Furnish and install loading dock levelers, bumpers, and trash compactor. $78,000 $101,000 9/22/2021 10/4/2021 10/29/2021
05-053 Cold Storage   Furnish and install cold storage at the parking garage. $86,000 $111,000 9/22/2021 10/4/2021 10/29/2021
05-054 Food Service Equipment & Appliances   Furnish and install food service equipment at the museum, forum, and library. $1,162,000 $1,504,000 9/22/2021 10/4/2021 10/29/2021
05-055 Fall Arrest & Maintenance   Fall arrest and façade maintenance system for the museum. System includes horizontal lifelines and tiebacks. $597,000 $772,000 10/20/2021 11/1/2021 11/26/2021
05-056 Auditorium Equipment   Ramps wih railing only $19,000 $25,000 10/20/2021 11/1/2021 11/26/2021
05-057 Stage Engineering System   Stage flooring and rigging systems including trusses, shades, and curtain systems. $1,233,000 $1,596,000 10/20/2021 11/1/2021 11/26/2021
05-058 Specialty & Performance Lighting/AV System   Low voltage wiring to support specialty systems in the auditorium. $586,000 $758,000 10/20/2021 11/1/2021 11/26/2021
05-059 Window Treatments   Window treatments for the museum. $243,000 $314,000 10/20/2021 11/1/2021 11/26/2021
05-060 Window Treatments   Window treatments for the forum and library. $339,000 $439,000 10/20/2021 11/1/2021 11/26/2021
05-061 Wheelchair Lifts   Wheelchair lifts for the forum and library. $37,000 $48,000 10/20/2021 11/1/2021 11/26/2021
05-062 Site Earthwork   Importing soil, grading, and hardscape subgrade preparation. $2,627,000 $3,400,000 10/20/2021 11/1/2021 11/26/2021
05-063 Unit Pavers   Granite vehicular and pedestrian paving. $3,620,000 $4,684,000 10/20/2021 11/1/2021 11/26/2021
05-064 Site Concrete   Concrete paving, stairs, and retaining walls. $3,674,000 $4,755,000 10/20/2021 11/1/2021 11/26/2021
05-065 Pavement Markings   Parking striping and markings for the parking garage. $13,000 $17,000 10/20/2021 11/1/2021 11/26/2021
05-066 Asphalt Paving   Asphalt paving for the project site. $986,000 $1,276,000 10/20/2021 11/1/2021 11/26/2021
05-067 Vehicular Control   Automated, Manual & Fixed bollards for vehicle control. $1,394,000 $1,804,000 10/20/2021 11/1/2021 11/26/2021
05-068 Landscaping – Irrigation  Irrigation systems for the landscaping. $847,000 $1,096,000 10/20/2021 11/1/2021 11/26/2021
05-069 Landscaping – Plantings    Plantings and mulch for the project site. $10,281,000 $13,305,000 10/20/2021 11/1/2021 11/26/2021
05-070 Landscaping – Underdrainage     $509,000 $659,000 10/20/2021 11/1/2021 11/26/2021
05-071 Landscaping – Accessories & Play Equipment  Landscaping accessories including play equipment. $5,064,000 $6,553,000 10/20/2021 11/1/2021 11/26/2021
05-072 Geofoam   Geofoam fill for the project site. $4,148,000 $5,368,000 10/20/2021 11/1/2021 11/26/2021